createdAt,value
2023-01-27T00:09:25.125Z,93.22
2023-01-27T00:19:27.813Z,93.63
2023-01-27T00:29:31.843Z,93.66
2023-01-27T00:39:34.617Z,93.53
2023-01-27T00:49:38.680Z,93.46
2023-01-27T00:59:41.286Z,93.63
2023-01-27T01:09:45.243Z,93.67
2023-01-27T01:19:47.863Z,93.43
2023-01-27T01:29:51.889Z,93.42
2023-01-27T01:39:54.540Z,92.37
2023-01-27T01:49:58.571Z,93.00
2023-01-27T02:00:06.846Z,92.89
2023-01-27T02:10:12.522Z,91.72
2023-01-27T02:20:23.193Z,90.94
2023-01-27T02:30:27.447Z,88.77
2023-01-27T02:40:31.276Z,87.82
2023-01-27T02:50:35.351Z,86.81
2023-01-27T03:00:38.017Z,87.36
2023-01-27T03:10:42.049Z,86.99
2023-01-27T03:20:47.604Z,87.70
2023-01-27T03:30:51.733Z,87.80
2023-01-27T03:41:11.873Z,87.61
2023-01-27T03:51:16.344Z,87.25
2023-01-27T04:01:21.287Z,88.60
2023-01-27T04:11:43.029Z,87.58
2023-01-27T04:21:45.854Z,87.86
2023-01-27T04:31:49.908Z,88.90
2023-01-27T04:41:52.952Z,90.00
2023-01-27T04:51:57.229Z,91.23
2023-01-27T05:02:00.185Z,91.74
2023-01-27T05:12:04.449Z,92.11
2023-01-27T05:22:07.100Z,93.69
2023-01-27T05:32:11.081Z,93.27
2023-01-27T05:42:13.701Z,93.73
2023-01-27T05:52:17.662Z,94.11
2023-01-27T06:02:22.694Z,94.06
2023-01-27T06:12:27.334Z,93.97
2023-01-27T06:22:29.981Z,94.37
2023-01-27T06:32:36.469Z,94.30
2023-01-27T06:42:39.099Z,94.33
2023-01-27T06:52:43.080Z,94.23
2023-01-27T07:02:46.142Z,94.45
2023-01-27T07:12:50.138Z,95.41
2023-01-27T07:22:52.768Z,95.84
2023-01-27T07:32:56.761Z,96.13
2023-01-27T07:43:00.129Z,96.12
2023-01-27T07:53:05.742Z,96.03
2023-01-27T08:03:08.401Z,96.24
2023-01-27T08:13:12.496Z,96.62
2023-01-27T08:23:15.143Z,96.48
2023-01-27T08:33:19.671Z,96.26
2023-01-27T08:43:22.381Z,96.31
2023-01-27T08:53:27.104Z,95.30
2023-01-27T09:03:30.372Z,95.26
2023-01-27T09:13:34.403Z,94.14
2023-01-27T09:23:37.031Z,93.59
2023-01-27T09:33:41.036Z,93.67
2023-01-27T09:44:00.594Z,93.17
2023-01-27T09:54:21.878Z,92.17
2023-01-27T10:04:43.160Z,92.16
2023-01-27T10:15:00.462Z,90.24
2023-01-27T10:25:20.461Z,90.41
2023-01-27T10:35:32.581Z,90.66
2023-01-27T10:45:39.675Z,89.74
2023-01-27T10:55:50.892Z,88.75
2023-01-27T11:05:55.952Z,88.44
2023-01-27T11:16:01.624Z,86.33
2023-01-27T11:26:08.345Z,86.24
2023-01-27T11:36:12.403Z,85.77
2023-01-27T11:46:18.980Z,82.12
2023-01-27T11:56:24.445Z,81.82
2023-01-27T12:06:34.584Z,82.56
2023-01-27T12:16:45.973Z,82.54
2023-01-27T12:26:48.707Z,81.48
2023-01-27T12:36:54.035Z,82.79
2023-01-27T12:47:01.195Z,82.84
2023-01-27T12:57:11.888Z,83.74
2023-01-27T13:07:18.291Z,84.00
2023-01-27T13:17:37.948Z,84.46
2023-01-27T13:27:41.606Z,81.69
2023-01-27T13:37:52.364Z,82.82
2023-01-27T13:48:00.181Z,83.12
2023-01-27T13:58:11.304Z,83.36
2023-01-27T14:08:24.869Z,83.96
2023-01-27T14:18:33.264Z,84.70
2023-01-27T14:28:48.957Z,83.42
2023-01-27T14:39:03.204Z,85.03
2023-01-27T14:49:15.026Z,85.42
2023-01-27T14:59:32.048Z,85.25
2023-01-27T15:09:43.562Z,85.01
2023-01-27T15:20:14.680Z,84.81
2023-01-27T15:30:23.770Z,83.86
2023-01-27T15:40:28.459Z,84.03
2023-01-27T15:50:33.804Z,84.37
2023-01-27T16:00:39.990Z,84.23
2023-01-27T16:10:43.581Z,84.36
2023-01-27T16:20:52.908Z,82.96
2023-01-27T16:31:03.868Z,84.13
2023-01-27T16:41:18.503Z,84.17
2023-01-27T16:51:25.999Z,83.72
2023-01-27T17:01:36.326Z,83.29
2023-01-27T17:11:38.984Z,82.62
2023-01-27T17:21:46.223Z,81.81
2023-01-27T17:31:49.617Z,80.99
2023-01-27T17:41:58.771Z,80.44
2023-01-27T17:52:02.190Z,81.43
2023-01-27T18:02:16.358Z,82.23
2023-01-27T18:12:33.995Z,81.65
2023-01-27T18:22:46.137Z,82.10
2023-01-27T18:32:52.750Z,82.13
2023-01-27T18:42:57.611Z,82.41
2023-01-27T18:53:00.616Z,82.23
2023-01-27T19:03:07.914Z,82.12
2023-01-27T19:13:11.986Z,82.61
2023-01-27T19:23:19.107Z,82.25
2023-01-27T19:33:23.509Z,81.26
2023-01-27T19:43:27.532Z,81.00
2023-01-27T19:53:30.228Z,80.91
2023-01-27T20:03:34.456Z,81.27
2023-01-27T20:13:37.092Z,81.11
2023-01-27T20:23:41.045Z,80.91
2023-01-27T20:33:43.964Z,81.06
2023-01-27T20:43:50.249Z,80.94
2023-01-27T20:53:53.464Z,80.62
2023-01-27T21:03:57.442Z,79.53
2023-01-27T21:14:00.623Z,79.10
2023-01-27T21:24:05.195Z,79.39
2023-01-27T21:34:10.166Z,79.09
2023-01-27T21:44:35.808Z,78.84
2023-01-27T21:54:38.689Z,79.49
2023-01-27T22:04:43.174Z,80.25
2023-01-27T22:14:46.186Z,80.96
2023-01-27T22:24:50.363Z,81.14
2023-01-27T22:34:52.966Z,81.28
2023-01-27T22:44:56.921Z,81.55
2023-01-27T22:54:59.553Z,81.93
2023-01-27T23:05:03.515Z,82.29
2023-01-27T23:15:07.419Z,82.17
2023-01-27T23:25:12.874Z,81.96
2023-01-27T23:35:16.497Z,82.23
2023-01-27T23:45:20.701Z,82.56
2023-01-27T23:55:23.357Z,82.03
